sensor_id;sensor_type;location;lat;lon;timestamp;P1;durP1;ratioP1;P2;durP2;ratioP2
6053;SDS011;3055;50.886;14.814;2023-04-25T00:01:40;2.80;;;2.60;;
6053;SDS011;3055;50.886;14.814;2023-04-25T00:04:07;7.63;;;4.03;;
6053;SDS011;3055;50.886;14.814;2023-04-25T00:06:34;5.00;;;4.40;;
6053;SDS011;3055;50.886;14.814;2023-04-25T00:09:02;4.37;;;3.93;;
6053;SDS011;3055;50.886;14.814;2023-04-25T00:11:32;5.83;;;3.13;;
6053;SDS011;3055;50.886;14.814;2023-04-25T00:14:00;4.33;;;3.23;;
6053;SDS011;3055;50.886;14.814;2023-04-25T00:16:27;4.73;;;3.60;;
6053;SDS011;3055;50.886;14.814;2023-04-25T00:18:58;3.60;;;3.27;;
6053;SDS011;3055;50.886;14.814;2023-04-25T00:21:26;3.43;;;3.23;;
6053;SDS011;3055;50.886;14.814;2023-04-25T00:23:53;4.13;;;3.50;;
6053;SDS011;3055;50.886;14.814;2023-04-25T00:26:20;4.83;;;3.20;;
6053;SDS011;3055;50.886;14.814;2023-04-25T00:28:47;4.43;;;2.90;;
6053;SDS011;3055;50.886;14.814;2023-04-25T00:31:16;2.53;;;2.33;;
6053;SDS011;3055;50.886;14.814;2023-04-25T00:33:43;3.27;;;2.37;;
6053;SDS011;3055;50.886;14.814;2023-04-25T00:36:10;3.57;;;2.90;;
6053;SDS011;3055;50.886;14.814;2023-04-25T00:38:37;2.30;;;2.20;;
6053;SDS011;3055;50.886;14.814;2023-04-25T00:41:04;3.70;;;2.77;;
6053;SDS011;3055;50.886;14.814;2023-04-25T00:43:32;2.90;;;2.70;;
6053;SDS011;3055;50.886;14.814;2023-04-25T00:46:00;6.13;;;3.20;;
6053;SDS011;3055;50.886;14.814;2023-04-25T00:48:29;6.87;;;3.33;;
6053;SDS011;3055;50.886;14.814;2023-04-25T00:50:57;7.83;;;4.30;;
6053;SDS011;3055;50.886;14.814;2023-04-25T00:53:25;6.47;;;4.17;;
6053;SDS011;3055;50.886;14.814;2023-04-25T00:55:53;5.00;;;4.13;;
6053;SDS011;3055;50.886;14.814;2023-04-25T00:58:21;4.43;;;4.03;;
6053;SDS011;3055;50.886;14.814;2023-04-25T01:00:49;4.10;;;3.73;;
6053;SDS011;3055;50.886;14.814;2023-04-25T01:03:17;4.57;;;3.40;;
6053;SDS011;3055;50.886;14.814;2023-04-25T01:05:47;3.73;;;3.43;;
6053;SDS011;3055;50.886;14.814;2023-04-25T01:08:14;4.00;;;3.50;;
6053;SDS011;3055;50.886;14.814;2023-04-25T01:10:41;4.10;;;3.70;;
6053;SDS011;3055;50.886;14.814;2023-04-25T01:13:08;7.97;;;5.90;;
6053;SDS011;3055;50.886;14.814;2023-04-25T01:15:35;6.10;;;5.07;;
6053;SDS011;3055;50.886;14.814;2023-04-25T01:18:03;5.57;;;4.73;;
6053;SDS011;3055;50.886;14.814;2023-04-25T01:20:30;7.37;;;5.10;;
6053;SDS011;3055;50.886;14.814;2023-04-25T01:23:00;5.60;;;4.77;;
6053;SDS011;3055;50.886;14.814;2023-04-25T01:25:28;6.57;;;4.63;;
6053;SDS011;3055;50.886;14.814;2023-04-25T01:27:56;5.53;;;4.10;;
6053;SDS011;3055;50.886;14.814;2023-04-25T01:30:24;7.03;;;4.50;;
6053;SDS011;3055;50.886;14.814;2023-04-25T01:32:53;6.97;;;5.17;;
6053;SDS011;3055;50.886;14.814;2023-04-25T01:35:21;5.43;;;4.93;;
6053;SDS011;3055;50.886;14.814;2023-04-25T01:37:50;4.53;;;4.00;;
6053;SDS011;3055;50.886;14.814;2023-04-25T01:40:19;6.83;;;4.40;;
6053;SDS011;3055;50.886;14.814;2023-04-25T01:42:47;5.10;;;4.33;;
6053;SDS011;3055;50.886;14.814;2023-04-25T01:45:15;4.40;;;4.00;;
6053;SDS011;3055;50.886;14.814;2023-04-25T01:47:42;4.73;;;3.80;;
6053;SDS011;3055;50.886;14.814;2023-04-25T01:50:14;4.07;;;3.73;;
6053;SDS011;3055;50.886;14.814;2023-04-25T01:52:42;4.03;;;3.73;;
6053;SDS011;3055;50.886;14.814;2023-04-25T01:55:09;6.90;;;4.57;;
6053;SDS011;3055;50.886;14.814;2023-04-25T01:57:38;5.90;;;5.30;;
6053;SDS011;3055;50.886;14.814;2023-04-25T02:00:05;8.80;;;4.80;;
6053;SDS011;3055;50.886;14.814;2023-04-25T02:02:34;5.63;;;4.50;;
6053;SDS011;3055;50.886;14.814;2023-04-25T02:05:01;6.60;;;4.67;;
6053;SDS011;3055;50.886;14.814;2023-04-25T02:07:28;5.60;;;5.07;;
6053;SDS011;3055;50.886;14.814;2023-04-25T02:09:55;5.23;;;4.63;;
6053;SDS011;3055;50.886;14.814;2023-04-25T02:12:22;4.20;;;3.80;;
6053;SDS011;3055;50.886;14.814;2023-04-25T02:14:52;4.63;;;3.77;;
6053;SDS011;3055;50.886;14.814;2023-04-25T02:17:19;6.03;;;3.90;;
6053;SDS011;3055;50.886;14.814;2023-04-25T02:19:47;6.90;;;4.57;;
6053;SDS011;3055;50.886;14.814;2023-04-25T02:22:14;4.13;;;3.83;;
6053;SDS011;3055;50.886;14.814;2023-04-25T02:24:41;4.60;;;4.20;;
6053;SDS011;3055;50.886;14.814;2023-04-25T02:27:08;4.70;;;4.23;;
6053;SDS011;3055;50.886;14.814;2023-04-25T02:29:35;4.00;;;3.70;;
6053;SDS011;3055;50.886;14.814;2023-04-25T02:32:04;3.73;;;3.43;;
6053;SDS011;3055;50.886;14.814;2023-04-25T02:34:31;3.70;;;3.40;;
6053;SDS011;3055;50.886;14.814;2023-04-25T02:36:58;3.93;;;3.60;;
6053;SDS011;3055;50.886;14.814;2023-04-25T02:39:25;4.30;;;3.90;;
6053;SDS011;3055;50.886;14.814;2023-04-25T02:41:52;3.70;;;3.33;;
6053;SDS011;3055;50.886;14.814;2023-04-25T02:44:19;3.90;;;3.60;;
6053;SDS011;3055;50.886;14.814;2023-04-25T02:46:46;4.00;;;3.70;;
6053;SDS011;3055;50.886;14.814;2023-04-25T02:49:15;5.63;;;3.57;;
6053;SDS011;3055;50.886;14.814;2023-04-25T02:51:42;3.40;;;3.10;;
6053;SDS011;3055;50.886;14.814;2023-04-25T02:54:09;3.93;;;3.63;;
6053;SDS011;3055;50.886;14.814;2023-04-25T02:56:36;4.17;;;3.60;;
6053;SDS011;3055;50.886;14.814;2023-04-25T02:59:04;3.87;;;3.40;;
6053;SDS011;3055;50.886;14.814;2023-04-25T03:01:31;4.20;;;3.80;;
6053;SDS011;3055;50.886;14.814;2023-04-25T03:03:58;3.70;;;3.40;;
6053;SDS011;3055;50.886;14.814;2023-04-25T03:06:26;8.30;;;4.90;;
6053;SDS011;3055;50.886;14.814;2023-04-25T03:08:53;6.97;;;4.27;;
6053;SDS011;3055;50.886;14.814;2023-04-25T03:11:20;4.83;;;4.43;;
6053;SDS011;3055;50.886;14.814;2023-04-25T03:13:47;5.40;;;4.90;;
6053;SDS011;3055;50.886;14.814;2023-04-25T03:16:14;8.13;;;5.73;;
6053;SDS011;3055;50.886;14.814;2023-04-25T03:18:41;7.27;;;6.23;;
6053;SDS011;3055;50.886;14.814;2023-04-25T03:21:08;7.50;;;5.93;;
6053;SDS011;3055;50.886;14.814;2023-04-25T03:23:37;9.27;;;6.03;;
6053;SDS011;3055;50.886;14.814;2023-04-25T03:26:04;8.77;;;6.03;;
6053;SDS011;3055;50.886;14.814;2023-04-25T03:28:31;7.80;;;6.07;;
6053;SDS011;3055;50.886;14.814;2023-04-25T03:30:58;6.83;;;5.50;;
6053;SDS011;3055;50.886;14.814;2023-04-25T03:33:25;6.70;;;5.87;;
6053;SDS011;3055;50.886;14.814;2023-04-25T03:35:52;7.33;;;5.77;;
6053;SDS011;3055;50.886;14.814;2023-04-25T03:38:19;7.27;;;5.87;;
6053;SDS011;3055;50.886;14.814;2023-04-25T03:40:47;7.20;;;6.23;;
6053;SDS011;3055;50.886;14.814;2023-04-25T03:43:15;8.97;;;6.63;;
6053;SDS011;3055;50.886;14.814;2023-04-25T03:45:42;7.63;;;6.53;;
6053;SDS011;3055;50.886;14.814;2023-04-25T03:48:09;7.57;;;6.10;;
6053;SDS011;3055;50.886;14.814;2023-04-25T03:50:37;6.93;;;5.73;;
6053;SDS011;3055;50.886;14.814;2023-04-25T03:53:04;10.07;;;6.97;;
6053;SDS011;3055;50.886;14.814;2023-04-25T03:55:31;10.20;;;7.27;;
6053;SDS011;3055;50.886;14.814;2023-04-25T03:57:59;8.47;;;6.57;;
6053;SDS011;3055;50.886;14.814;2023-04-25T04:00:26;12.47;;;6.90;;
6053;SDS011;3055;50.886;14.814;2023-04-25T04:02:53;6.90;;;6.20;;
6053;SDS011;3055;50.886;14.814;2023-04-25T04:05:20;7.17;;;6.07;;
6053;SDS011;3055;50.886;14.814;2023-04-25T04:07:48;8.30;;;6.30;;
6053;SDS011;3055;50.886;14.814;2023-04-25T04:10:15;7.93;;;6.33;;
6053;SDS011;3055;50.886;14.814;2023-04-25T04:12:42;8.13;;;6.03;;
6053;SDS011;3055;50.886;14.814;2023-04-25T04:15:11;7.60;;;6.07;;
6053;SDS011;3055;50.886;14.814;2023-04-25T04:17:38;5.57;;;4.90;;
6053;SDS011;3055;50.886;14.814;2023-04-25T04:20:06;5.73;;;5.20;;
6053;SDS011;3055;50.886;14.814;2023-04-25T04:22:33;7.13;;;6.30;;
6053;SDS011;3055;50.886;14.814;2023-04-25T04:25:01;6.17;;;5.57;;
6053;SDS011;3055;50.886;14.814;2023-04-25T04:27:30;12.23;;;6.60;;
6053;SDS011;3055;50.886;14.814;2023-04-25T04:29:58;7.40;;;6.43;;
6053;SDS011;3055;50.886;14.814;2023-04-25T04:32:26;8.27;;;6.20;;
6053;SDS011;3055;50.886;14.814;2023-04-25T04:34:55;7.17;;;6.30;;
6053;SDS011;3055;50.886;14.814;2023-04-25T04:37:23;6.60;;;5.97;;
6053;SDS011;3055;50.886;14.814;2023-04-25T04:39:50;8.93;;;6.57;;
6053;SDS011;3055;50.886;14.814;2023-04-25T04:42:17;8.07;;;6.20;;
6053;SDS011;3055;50.886;14.814;2023-04-25T04:44:44;7.23;;;5.77;;
6053;SDS011;3055;50.886;14.814;2023-04-25T04:47:11;6.30;;;5.40;;
6053;SDS011;3055;50.886;14.814;2023-04-25T04:49:40;6.23;;;5.30;;
6053;SDS011;3055;50.886;14.814;2023-04-25T04:52:07;7.10;;;5.20;;
6053;SDS011;3055;50.886;14.814;2023-04-25T04:54:34;6.60;;;5.20;;
6053;SDS011;3055;50.886;14.814;2023-04-25T04:57:02;7.90;;;5.10;;
6053;SDS011;3055;50.886;14.814;2023-04-25T04:59:29;8.13;;;5.37;;
6053;SDS011;3055;50.886;14.814;2023-04-25T05:01:56;6.37;;;5.63;;
6053;SDS011;3055;50.886;14.814;2023-04-25T05:04:23;6.70;;;5.20;;
6053;SDS011;3055;50.886;14.814;2023-04-25T05:06:51;5.13;;;4.63;;
6053;SDS011;3055;50.886;14.814;2023-04-25T05:09:18;7.07;;;4.70;;
6053;SDS011;3055;50.886;14.814;2023-04-25T05:11:45;7.40;;;4.90;;
6053;SDS011;3055;50.886;14.814;2023-04-25T05:14:12;7.80;;;5.17;;
6053;SDS011;3055;50.886;14.814;2023-04-25T05:16:39;7.07;;;4.83;;
6053;SDS011;3055;50.886;14.814;2023-04-25T05:19:07;5.63;;;4.73;;
6053;SDS011;3055;50.886;14.814;2023-04-25T05:21:34;6.47;;;4.23;;
6053;SDS011;3055;50.886;14.814;2023-04-25T05:24:02;4.20;;;3.80;;
6053;SDS011;3055;50.886;14.814;2023-04-25T05:26:29;4.63;;;4.03;;
6053;SDS011;3055;50.886;14.814;2023-04-25T05:28:56;4.07;;;3.73;;
6053;SDS011;3055;50.886;14.814;2023-04-25T05:31:24;6.43;;;4.13;;
6053;SDS011;3055;50.886;14.814;2023-04-25T05:33:51;4.23;;;3.87;;
6053;SDS011;3055;50.886;14.814;2023-04-25T05:36:18;6.53;;;4.40;;
6053;SDS011;3055;50.886;14.814;2023-04-25T05:38:45;6.27;;;4.70;;
6053;SDS011;3055;50.886;14.814;2023-04-25T05:41:14;8.10;;;4.97;;
6053;SDS011;3055;50.886;14.814;2023-04-25T05:43:41;5.20;;;4.70;;
6053;SDS011;3055;50.886;14.814;2023-04-25T05:46:12;6.33;;;4.43;;
6053;SDS011;3055;50.886;14.814;2023-04-25T05:48:39;6.13;;;4.67;;
6053;SDS011;3055;50.886;14.814;2023-04-25T05:51:06;6.27;;;5.00;;
6053;SDS011;3055;50.886;14.814;2023-04-25T05:53:33;4.97;;;4.47;;
6053;SDS011;3055;50.886;14.814;2023-04-25T05:56:00;5.77;;;5.17;;
6053;SDS011;3055;50.886;14.814;2023-04-25T05:58:29;6.90;;;4.90;;
6053;SDS011;3055;50.886;14.814;2023-04-25T06:00:56;5.43;;;4.57;;
6053;SDS011;3055;50.886;14.814;2023-04-25T06:03:23;5.33;;;4.83;;
6053;SDS011;3055;50.886;14.814;2023-04-25T06:05:50;6.97;;;5.53;;
6053;SDS011;3055;50.886;14.814;2023-04-25T06:08:17;6.53;;;5.83;;
6053;SDS011;3055;50.886;14.814;2023-04-25T06:10:44;5.57;;;4.73;;
6053;SDS011;3055;50.886;14.814;2023-04-25T06:13:11;6.60;;;5.27;;
6053;SDS011;3055;50.886;14.814;2023-04-25T06:15:40;5.40;;;4.73;;
6053;SDS011;3055;50.886;14.814;2023-04-25T06:18:07;6.97;;;4.40;;
6053;SDS011;3055;50.886;14.814;2023-04-25T06:20:34;7.30;;;4.80;;
6053;SDS011;3055;50.886;14.814;2023-04-25T06:23:01;6.33;;;4.97;;
6053;SDS011;3055;50.886;14.814;2023-04-25T06:25:28;7.97;;;4.57;;
6053;SDS011;3055;50.886;14.814;2023-04-25T06:27:55;5.13;;;4.57;;
6053;SDS011;3055;50.886;14.814;2023-04-25T06:30:22;5.47;;;4.97;;
6053;SDS011;3055;50.886;14.814;2023-04-25T06:32:52;7.20;;;4.67;;
6053;SDS011;3055;50.886;14.814;2023-04-25T06:35:19;7.43;;;4.27;;
6053;SDS011;3055;50.886;14.814;2023-04-25T06:37:46;6.20;;;4.57;;
6053;SDS011;3055;50.886;14.814;2023-04-25T06:40:13;5.57;;;4.23;;
6053;SDS011;3055;50.886;14.814;2023-04-25T06:42:42;5.40;;;4.00;;
6053;SDS011;3055;50.886;14.814;2023-04-25T06:45:09;6.60;;;5.03;;
6053;SDS011;3055;50.886;14.814;2023-04-25T06:47:37;5.47;;;3.93;;
6053;SDS011;3055;50.886;14.814;2023-04-25T06:50:06;6.97;;;3.93;;
6053;SDS011;3055;50.886;14.814;2023-04-25T06:52:34;7.30;;;4.07;;
6053;SDS011;3055;50.886;14.814;2023-04-25T06:55:01;4.40;;;3.77;;
6053;SDS011;3055;50.886;14.814;2023-04-25T06:57:29;4.67;;;3.30;;
6053;SDS011;3055;50.886;14.814;2023-04-25T06:59:57;5.00;;;3.43;;
6053;SDS011;3055;50.886;14.814;2023-04-25T07:02:23;4.93;;;3.47;;
6053;SDS011;3055;50.886;14.814;2023-04-25T07:04:51;5.23;;;3.93;;
6053;SDS011;3055;50.886;14.814;2023-04-25T07:07:19;5.70;;;3.57;;
6053;SDS011;3055;50.886;14.814;2023-04-25T07:09:46;4.57;;;4.00;;
6053;SDS011;3055;50.886;14.814;2023-04-25T07:12:13;8.07;;;5.33;;
6053;SDS011;3055;50.886;14.814;2023-04-25T07:14:40;11.00;;;6.53;;
6053;SDS011;3055;50.886;14.814;2023-04-25T07:17:07;7.77;;;4.47;;
6053;SDS011;3055;50.886;14.814;2023-04-25T07:19:34;5.00;;;3.30;;
6053;SDS011;3055;50.886;14.814;2023-04-25T07:22:03;5.60;;;3.53;;
6053;SDS011;3055;50.886;14.814;2023-04-25T07:24:32;3.80;;;3.40;;
6053;SDS011;3055;50.886;14.814;2023-04-25T07:26:59;6.57;;;5.27;;
6053;SDS011;3055;50.886;14.814;2023-04-25T07:29:26;4.37;;;2.93;;
6053;SDS011;3055;50.886;14.814;2023-04-25T07:31:53;3.97;;;3.40;;
6053;SDS011;3055;50.886;14.814;2023-04-25T07:34:20;5.23;;;2.97;;
6053;SDS011;3055;50.886;14.814;2023-04-25T07:36:47;3.60;;;3.30;;
6053;SDS011;3055;50.886;14.814;2023-04-25T07:39:15;6.03;;;3.80;;
6053;SDS011;3055;50.886;14.814;2023-04-25T07:41:43;5.90;;;3.90;;
6053;SDS011;3055;50.886;14.814;2023-04-25T07:44:10;5.80;;;3.53;;
6053;SDS011;3055;50.886;14.814;2023-04-25T07:46:37;3.33;;;2.60;;
6053;SDS011;3055;50.886;14.814;2023-04-25T07:49:04;5.40;;;3.10;;
6053;SDS011;3055;50.886;14.814;2023-04-25T07:51:31;4.87;;;2.90;;
6053;SDS011;3055;50.886;14.814;2023-04-25T07:53:59;4.57;;;2.83;;
6053;SDS011;3055;50.886;14.814;2023-04-25T07:56:26;5.37;;;3.63;;
6053;SDS011;3055;50.886;14.814;2023-04-25T07:58:54;3.97;;;2.90;;
6053;SDS011;3055;50.886;14.814;2023-04-25T08:01:22;2.63;;;2.40;;
6053;SDS011;3055;50.886;14.814;2023-04-25T08:03:49;3.97;;;2.50;;
6053;SDS011;3055;50.886;14.814;2023-04-25T08:06:16;2.90;;;2.60;;
6053;SDS011;3055;50.886;14.814;2023-04-25T08:08:43;3.33;;;2.50;;
6053;SDS011;3055;50.886;14.814;2023-04-25T08:11:11;2.60;;;2.40;;
6053;SDS011;3055;50.886;14.814;2023-04-25T08:13:38;2.77;;;2.33;;
6053;SDS011;3055;50.886;14.814;2023-04-25T08:16:07;6.80;;;2.40;;
6053;SDS011;3055;50.886;14.814;2023-04-25T08:18:34;4.30;;;2.53;;
6053;SDS011;3055;50.886;14.814;2023-04-25T08:21:01;5.47;;;2.80;;
6053;SDS011;3055;50.886;14.814;2023-04-25T08:23:28;3.37;;;2.50;;
6053;SDS011;3055;50.886;14.814;2023-04-25T08:25:55;4.47;;;2.73;;
6053;SDS011;3055;50.886;14.814;2023-04-25T08:28:22;4.63;;;2.93;;
6053;SDS011;3055;50.886;14.814;2023-04-25T08:30:50;3.20;;;2.60;;
6053;SDS011;3055;50.886;14.814;2023-04-25T08:33:18;2.93;;;2.60;;
6053;SDS011;3055;50.886;14.814;2023-04-25T08:35:45;2.90;;;2.57;;
6053;SDS011;3055;50.886;14.814;2023-04-25T08:38:12;2.60;;;2.40;;
6053;SDS011;3055;50.886;14.814;2023-04-25T08:40:39;3.60;;;2.90;;
6053;SDS011;3055;50.886;14.814;2023-04-25T08:43:07;3.93;;;3.23;;
6053;SDS011;3055;50.886;14.814;2023-04-25T08:45:36;3.60;;;2.77;;
6053;SDS011;3055;50.886;14.814;2023-04-25T08:48:06;3.47;;;2.53;;
6053;SDS011;3055;50.886;14.814;2023-04-25T08:50:38;5.83;;;3.23;;
6053;SDS011;3055;50.886;14.814;2023-04-25T08:53:07;3.87;;;2.77;;
6053;SDS011;3055;50.886;14.814;2023-04-25T08:55:38;3.90;;;2.80;;
6053;SDS011;3055;50.886;14.814;2023-04-25T08:58:08;4.53;;;3.33;;
6053;SDS011;3055;50.886;14.814;2023-04-25T09:00:39;7.00;;;3.47;;
6053;SDS011;3055;50.886;14.814;2023-04-25T09:03:06;7.73;;;2.87;;
6053;SDS011;3055;50.886;14.814;2023-04-25T09:05:33;3.47;;;2.97;;
6053;SDS011;3055;50.886;14.814;2023-04-25T09:08:02;4.17;;;2.80;;
6053;SDS011;3055;50.886;14.814;2023-04-25T09:10:29;4.80;;;2.67;;
6053;SDS011;3055;50.886;14.814;2023-04-25T09:13:03;2.97;;;2.47;;
6053;SDS011;3055;50.886;14.814;2023-04-25T09:15:31;3.13;;;2.70;;
6053;SDS011;3055;50.886;14.814;2023-04-25T09:17:59;2.97;;;2.20;;
6053;SDS011;3055;50.886;14.814;2023-04-25T09:20:26;5.47;;;2.90;;
6053;SDS011;3055;50.886;14.814;2023-04-25T09:23:05;5.13;;;2.73;;
6053;SDS011;3055;50.886;14.814;2023-04-25T09:25:35;3.13;;;2.83;;
6053;SDS011;3055;50.886;14.814;2023-04-25T09:28:04;4.53;;;3.53;;
6053;SDS011;3055;50.886;14.814;2023-04-25T09:30:33;3.00;;;2.70;;
6053;SDS011;3055;50.886;14.814;2023-04-25T09:33:05;4.43;;;2.90;;
6053;SDS011;3055;50.886;14.814;2023-04-25T09:35:35;3.40;;;2.60;;
6053;SDS011;3055;50.886;14.814;2023-04-25T09:38:08;3.17;;;2.70;;
6053;SDS011;3055;50.886;14.814;2023-04-25T09:40:39;4.03;;;2.80;;
6053;SDS011;3055;50.886;14.814;2023-04-25T09:43:08;2.80;;;2.50;;
6053;SDS011;3055;50.886;14.814;2023-04-25T09:45:42;3.80;;;2.50;;
6053;SDS011;3055;50.886;14.814;2023-04-25T09:48:12;2.37;;;2.17;;
6053;SDS011;3055;50.886;14.814;2023-04-25T09:50:44;4.80;;;2.40;;
6053;SDS011;3055;50.886;14.814;2023-04-25T09:53:13;4.93;;;2.60;;
6053;SDS011;3055;50.886;14.814;2023-04-25T09:55:40;4.33;;;2.90;;
6053;SDS011;3055;50.886;14.814;2023-04-25T09:58:09;4.20;;;2.73;;
6053;SDS011;3055;50.886;14.814;2023-04-25T10:00:38;3.33;;;2.60;;
6053;SDS011;3055;50.886;14.814;2023-04-25T10:03:06;4.10;;;2.60;;
6053;SDS011;3055;50.886;14.814;2023-04-25T10:05:34;3.77;;;2.60;;
6053;SDS011;3055;50.886;14.814;2023-04-25T10:08:02;4.67;;;2.57;;
6053;SDS011;3055;50.886;14.814;2023-04-25T10:10:31;4.43;;;2.90;;
6053;SDS011;3055;50.886;14.814;2023-04-25T10:13:02;3.33;;;2.60;;
6053;SDS011;3055;50.886;14.814;2023-04-25T10:15:32;4.03;;;2.60;;
6053;SDS011;3055;50.886;14.814;2023-04-25T10:18:01;3.07;;;2.00;;
6053;SDS011;3055;50.886;14.814;2023-04-25T10:20:29;3.33;;;2.07;;
6053;SDS011;3055;50.886;14.814;2023-04-25T10:22:58;4.17;;;2.10;;
6053;SDS011;3055;50.886;14.814;2023-04-25T10:25:34;3.63;;;2.47;;
6053;SDS011;3055;50.886;14.814;2023-04-25T10:28:03;2.83;;;2.53;;
6053;SDS011;3055;50.886;14.814;2023-04-25T10:30:30;3.83;;;2.43;;
6053;SDS011;3055;50.886;14.814;2023-04-25T10:32:58;3.27;;;2.50;;
6053;SDS011;3055;50.886;14.814;2023-04-25T10:35:25;2.17;;;1.80;;
6053;SDS011;3055;50.886;14.814;2023-04-25T10:37:57;2.37;;;2.17;;
6053;SDS011;3055;50.886;14.814;2023-04-25T10:40:25;2.60;;;1.80;;
6053;SDS011;3055;50.886;14.814;2023-04-25T10:42:54;2.73;;;2.53;;
6053;SDS011;3055;50.886;14.814;2023-04-25T10:45:22;3.27;;;2.30;;
6053;SDS011;3055;50.886;14.814;2023-04-25T10:47:49;2.50;;;2.30;;
6053;SDS011;3055;50.886;14.814;2023-04-25T10:50:16;4.07;;;2.00;;
6053;SDS011;3055;50.886;14.814;2023-04-25T10:52:43;1.97;;;1.70;;
6053;SDS011;3055;50.886;14.814;2023-04-25T10:55:11;3.27;;;2.10;;
6053;SDS011;3055;50.886;14.814;2023-04-25T10:57:39;3.90;;;2.07;;
6053;SDS011;3055;50.886;14.814;2023-04-25T11:00:10;2.10;;;1.90;;
6053;SDS011;3055;50.886;14.814;2023-04-25T11:02:43;3.90;;;2.10;;
6053;SDS011;3055;50.886;14.814;2023-04-25T11:07:57;2.43;;;2.00;;
6053;SDS011;3055;50.886;14.814;2023-04-25T11:10:25;3.40;;;1.90;;
6053;SDS011;3055;50.886;14.814;2023-04-25T11:12:53;3.53;;;2.20;;
6053;SDS011;3055;50.886;14.814;2023-04-25T11:15:21;4.00;;;2.33;;
6053;SDS011;3055;50.886;14.814;2023-04-25T11:17:50;3.20;;;2.00;;
6053;SDS011;3055;50.886;14.814;2023-04-25T11:20:17;2.03;;;1.73;;
6053;SDS011;3055;50.886;14.814;2023-04-25T11:22:45;1.60;;;1.50;;
6053;SDS011;3055;50.886;14.814;2023-04-25T11:25:13;3.10;;;2.33;;
6053;SDS011;3055;50.886;14.814;2023-04-25T11:27:51;3.30;;;2.17;;
6053;SDS011;3055;50.886;14.814;2023-04-25T11:30:18;3.43;;;2.50;;
6053;SDS011;3055;50.886;14.814;2023-04-25T11:32:48;3.67;;;1.93;;
6053;SDS011;3055;50.886;14.814;2023-04-25T11:35:15;2.60;;;2.00;;
6053;SDS011;3055;50.886;14.814;2023-04-25T11:37:42;5.33;;;2.23;;
6053;SDS011;3055;50.886;14.814;2023-04-25T11:40:10;3.40;;;3.10;;
6053;SDS011;3055;50.886;14.814;2023-04-25T11:42:38;5.10;;;2.97;;
6053;SDS011;3055;50.886;14.814;2023-04-25T11:45:06;5.07;;;2.97;;
6053;SDS011;3055;50.886;14.814;2023-04-25T11:47:34;5.50;;;3.27;;
6053;SDS011;3055;50.886;14.814;2023-04-25T11:50:03;4.17;;;3.77;;
6053;SDS011;3055;50.886;14.814;2023-04-25T11:52:35;5.77;;;2.93;;
6053;SDS011;3055;50.886;14.814;2023-04-25T11:55:04;4.40;;;2.77;;
6053;SDS011;3055;50.886;14.814;2023-04-25T11:57:32;3.43;;;2.40;;
6053;SDS011;3055;50.886;14.814;2023-04-25T12:00:07;3.20;;;2.57;;
6053;SDS011;3055;50.886;14.814;2023-04-25T12:02:36;2.70;;;2.27;;
6053;SDS011;3055;50.886;14.814;2023-04-25T12:05:07;3.07;;;2.53;;
6053;SDS011;3055;50.886;14.814;2023-04-25T12:07:35;5.13;;;2.80;;
6053;SDS011;3055;50.886;14.814;2023-04-25T12:10:06;3.37;;;3.00;;
6053;SDS011;3055;50.886;14.814;2023-04-25T12:12:34;5.23;;;3.10;;
6053;SDS011;3055;50.886;14.814;2023-04-25T12:15:08;4.60;;;3.10;;
6053;SDS011;3055;50.886;14.814;2023-04-25T12:17:44;3.23;;;2.90;;
6053;SDS011;3055;50.886;14.814;2023-04-25T12:20:14;4.03;;;2.80;;
6053;SDS011;3055;50.886;14.814;2023-04-25T12:22:43;4.47;;;3.20;;
6053;SDS011;3055;50.886;14.814;2023-04-25T12:25:11;3.53;;;2.77;;
6053;SDS011;3055;50.886;14.814;2023-04-25T12:27:39;3.33;;;2.57;;
6053;SDS011;3055;50.886;14.814;2023-04-25T12:30:07;3.43;;;2.50;;
6053;SDS011;3055;50.886;14.814;2023-04-25T12:32:35;3.13;;;2.80;;
6053;SDS011;3055;50.886;14.814;2023-04-25T12:35:03;5.27;;;2.80;;
6053;SDS011;3055;50.886;14.814;2023-04-25T12:37:33;4.23;;;3.10;;
6053;SDS011;3055;50.886;14.814;2023-04-25T12:40:00;3.47;;;2.77;;
6053;SDS011;3055;50.886;14.814;2023-04-25T12:42:29;4.33;;;2.63;;
6053;SDS011;3055;50.886;14.814;2023-04-25T12:44:56;2.27;;;2.07;;
6053;SDS011;3055;50.886;14.814;2023-04-25T12:47:23;2.20;;;1.93;;
6053;SDS011;3055;50.886;14.814;2023-04-25T12:49:50;2.77;;;2.20;;
6053;SDS011;3055;50.886;14.814;2023-04-25T12:52:17;2.10;;;1.90;;
6053;SDS011;3055;50.886;14.814;2023-04-25T12:54:45;3.03;;;2.20;;
6053;SDS011;3055;50.886;14.814;2023-04-25T12:57:12;2.90;;;2.20;;
6053;SDS011;3055;50.886;14.814;2023-04-25T12:59:40;2.40;;;2.17;;
6053;SDS011;3055;50.886;14.814;2023-04-25T13:02:07;3.13;;;2.30;;
6053;SDS011;3055;50.886;14.814;2023-04-25T13:04:34;2.60;;;1.83;;
6053;SDS011;3055;50.886;14.814;2023-04-25T13:07:01;2.33;;;2.13;;
6053;SDS011;3055;50.886;14.814;2023-04-25T13:09:28;6.00;;;2.40;;
6053;SDS011;3055;50.886;14.814;2023-04-25T13:11:57;2.77;;;2.57;;
6053;SDS011;3055;50.886;14.814;2023-04-25T13:14:24;2.70;;;2.50;;
6053;SDS011;3055;50.886;14.814;2023-04-25T13:16:51;3.20;;;2.90;;
6053;SDS011;3055;50.886;14.814;2023-04-25T13:19:19;3.13;;;2.83;;
6053;SDS011;3055;50.886;14.814;2023-04-25T13:21:46;4.87;;;3.50;;
6053;SDS011;3055;50.886;14.814;2023-04-25T13:24:13;5.43;;;4.30;;
6053;SDS011;3055;50.886;14.814;2023-04-25T13:26:40;4.30;;;3.83;;
6053;SDS011;3055;50.886;14.814;2023-04-25T13:29:09;5.03;;;4.50;;
6053;SDS011;3055;50.886;14.814;2023-04-25T13:31:36;4.77;;;4.33;;
6053;SDS011;3055;50.886;14.814;2023-04-25T13:34:03;5.47;;;4.10;;
6053;SDS011;3055;50.886;14.814;2023-04-25T13:36:30;4.73;;;3.80;;
6053;SDS011;3055;50.886;14.814;2023-04-25T13:38:57;4.13;;;3.53;;
6053;SDS011;3055;50.886;14.814;2023-04-25T13:41:24;7.03;;;3.93;;
6053;SDS011;3055;50.886;14.814;2023-04-25T13:43:52;7.07;;;4.27;;
6053;SDS011;3055;50.886;14.814;2023-04-25T13:46:20;5.17;;;3.87;;
6053;SDS011;3055;50.886;14.814;2023-04-25T13:48:47;3.30;;;3.00;;
6053;SDS011;3055;50.886;14.814;2023-04-25T13:51:15;3.43;;;2.80;;
6053;SDS011;3055;50.886;14.814;2023-04-25T13:53:43;4.73;;;3.13;;
6053;SDS011;3055;50.886;14.814;2023-04-25T13:56:10;3.20;;;2.60;;
6053;SDS011;3055;50.886;14.814;2023-04-25T13:58:37;6.23;;;3.30;;
6053;SDS011;3055;50.886;14.814;2023-04-25T14:01:05;2.83;;;2.53;;
6053;SDS011;3055;50.886;14.814;2023-04-25T14:03:34;3.03;;;2.23;;
6053;SDS011;3055;50.886;14.814;2023-04-25T14:06:01;2.53;;;2.30;;
6053;SDS011;3055;50.886;14.814;2023-04-25T14:08:29;2.60;;;2.17;;
6053;SDS011;3055;50.886;14.814;2023-04-25T14:10:56;3.17;;;2.00;;
6053;SDS011;3055;50.886;14.814;2023-04-25T14:13:23;4.27;;;2.27;;
6053;SDS011;3055;50.886;14.814;2023-04-25T14:15:50;4.87;;;1.90;;
6053;SDS011;3055;50.886;14.814;2023-04-25T14:18:18;7.20;;;2.30;;
6053;SDS011;3055;50.886;14.814;2023-04-25T14:20:46;4.40;;;2.20;;
6053;SDS011;3055;50.886;14.814;2023-04-25T14:23:14;3.97;;;2.40;;
6053;SDS011;3055;50.886;14.814;2023-04-25T14:25:42;5.10;;;2.30;;
6053;SDS011;3055;50.886;14.814;2023-04-25T14:28:09;2.43;;;2.23;;
6053;SDS011;3055;50.886;14.814;2023-04-25T14:30:37;5.17;;;2.23;;
6053;SDS011;3055;50.886;14.814;2023-04-25T14:33:04;5.33;;;2.70;;
6053;SDS011;3055;50.886;14.814;2023-04-25T14:35:31;4.77;;;2.57;;
6053;SDS011;3055;50.886;14.814;2023-04-25T14:37:59;5.67;;;2.27;;
6053;SDS011;3055;50.886;14.814;2023-04-25T14:40:26;5.83;;;3.17;;
6053;SDS011;3055;50.886;14.814;2023-04-25T14:42:53;3.03;;;2.40;;
6053;SDS011;3055;50.886;14.814;2023-04-25T14:45:21;4.17;;;2.73;;
6053;SDS011;3055;50.886;14.814;2023-04-25T14:47:48;4.77;;;2.40;;
6053;SDS011;3055;50.886;14.814;2023-04-25T14:50:15;7.20;;;2.50;;
6053;SDS011;3055;50.886;14.814;2023-04-25T14:52:43;8.53;;;3.50;;
6053;SDS011;3055;50.886;14.814;2023-04-25T14:55:12;5.83;;;3.03;;
6053;SDS011;3055;50.886;14.814;2023-04-25T14:57:39;8.80;;;3.07;;
6053;SDS011;3055;50.886;14.814;2023-04-25T15:00:07;6.27;;;3.33;;
6053;SDS011;3055;50.886;14.814;2023-04-25T15:02:35;3.50;;;2.90;;
6053;SDS011;3055;50.886;14.814;2023-04-25T15:05:03;8.67;;;3.37;;
6053;SDS011;3055;50.886;14.814;2023-04-25T15:07:31;4.83;;;3.00;;